BVY weather

Beverly Municipal Airport
Beverly, Massachusetts, United States

Public forecast

Using degrees Fahrenheit for public forecast. Weather courtesy of forecast.io.

METAR (pilot weather report)

Retrieved 2018/04/21 04:53 UTC (10 minutes ago):

KBVY 210453Z AUTO 29006KT 10SM SCT085 04/M03 A3023 RMK AO2 SLP234 T00441028 401170022

TAF (pilot weather forecast)

Forecast is more than 12 hours old.

Closest forecast is General Edward Lawrence Logan International Airport, 13.8 nm (25.5 km) SSW. Retrieved 2018/04/20 00:31 UTC (1 day ago):

TAF KBOS 202322Z 2100/2206 31010G22KT P6SM SCT050 FM210700 31009KT P6SM FEW150 FM211000 31010G18KT P6SM SKC FM211400 32010KT P6SM SKC FM220100 34005KT P6SM FEW150